createdAt,value
2018-07-21T00:00:42.014Z,39.25
2018-07-21T00:03:11.232Z,39.54
2018-07-21T00:05:40.356Z,39.34
2018-07-21T00:08:09.428Z,39.84
2018-07-21T00:10:38.563Z,39.99
2018-07-21T00:13:07.802Z,39.94
2018-07-21T00:15:37.114Z,40.00
2018-07-21T00:18:06.238Z,40.04
2018-07-21T00:20:35.354Z,40.04
2018-07-21T00:23:04.445Z,40.09
2018-07-21T00:25:33.567Z,39.92
2018-07-21T00:28:02.711Z,40.22
2018-07-21T00:30:31.843Z,40.04
2018-07-21T00:33:00.995Z,39.97
2018-07-21T00:35:30.110Z,40.18
2018-07-21T00:37:59.245Z,40.25
2018-07-21T00:40:28.505Z,40.07
2018-07-21T00:42:57.666Z,40.06
2018-07-21T00:45:26.773Z,40.42
2018-07-21T00:47:55.860Z,39.98
2018-07-21T00:50:25.053Z,40.22
2018-07-21T00:52:54.180Z,40.18
2018-07-21T00:55:23.293Z,40.14
2018-07-21T00:57:52.435Z,40.37
2018-07-21T01:00:21.582Z,40.13
2018-07-21T01:02:50.815Z,40.15
2018-07-21T01:05:19.906Z,39.96
2018-07-21T01:07:49.010Z,40.13
2018-07-21T01:10:18.223Z,40.29
2018-07-21T01:12:47.411Z,39.86
2018-07-21T01:15:16.553Z,40.15
2018-07-21T01:17:45.648Z,40.22
2018-07-21T01:20:14.783Z,39.97
2018-07-21T01:22:43.938Z,40.53
2018-07-21T01:25:13.013Z,40.21
2018-07-21T01:27:42.237Z,40.17
2018-07-21T01:30:11.310Z,40.42
2018-07-21T01:32:40.470Z,40.29
2018-07-21T01:35:09.608Z,40.26
2018-07-21T01:37:38.735Z,40.39
2018-07-21T01:40:07.894Z,40.26
2018-07-21T01:42:37.018Z,40.13
2018-07-21T01:45:06.197Z,40.41
2018-07-21T01:47:35.322Z,40.09
2018-07-21T01:50:04.890Z,40.21
2018-07-21T01:52:34.087Z,40.15
2018-07-21T01:55:03.210Z,40.31
2018-07-21T01:57:32.335Z,40.22
2018-07-21T02:00:01.459Z,40.25
2018-07-21T02:02:30.598Z,40.27
2018-07-21T02:04:59.681Z,40.26
2018-07-21T02:07:28.786Z,40.20
2018-07-21T02:09:57.914Z,40.35
2018-07-21T02:12:26.993Z,40.38
2018-07-21T02:14:56.114Z,40.35
2018-07-21T02:17:25.335Z,40.37
2018-07-21T02:19:54.398Z,40.42
2018-07-21T02:22:23.448Z,40.22
2018-07-21T02:24:52.635Z,40.65
2018-07-21T02:27:21.701Z,40.50
2018-07-21T02:29:50.837Z,40.65
2018-07-21T02:32:19.905Z,40.87
2018-07-21T02:34:48.994Z,41.29
2018-07-21T02:37:18.110Z,41.16
2018-07-21T02:39:47.309Z,41.25
2018-07-21T02:42:16.394Z,41.38
2018-07-21T02:44:45.525Z,41.23
2018-07-21T02:47:14.671Z,41.70
2018-07-21T02:49:43.739Z,41.72
2018-07-21T02:52:12.864Z,41.83
2018-07-21T02:54:41.970Z,41.85
2018-07-21T02:57:11.453Z,41.88
2018-07-21T02:59:40.536Z,41.90
2018-07-21T03:02:09.685Z,42.14
2018-07-21T03:04:38.758Z,42.10
2018-07-21T03:07:07.910Z,41.89
2018-07-21T03:09:36.957Z,42.14
2018-07-21T03:12:06.055Z,42.31
2018-07-21T03:14:35.118Z,42.23
2018-07-21T03:17:04.258Z,42.23
2018-07-21T03:19:33.162Z,42.53
2018-07-21T03:22:02.293Z,42.33
2018-07-21T03:24:31.470Z,42.42
2018-07-21T03:27:00.559Z,42.06
2018-07-21T03:29:29.646Z,42.36
2018-07-21T03:31:58.748Z,42.05
2018-07-21T03:34:27.867Z,42.22
2018-07-21T03:36:56.935Z,42.25
2018-07-21T03:39:26.038Z,41.98
2018-07-21T03:41:55.124Z,42.31
2018-07-21T03:44:24.219Z,42.35
2018-07-21T03:46:53.307Z,42.22
2018-07-21T03:49:22.625Z,42.38
2018-07-21T03:51:51.803Z,42.25
2018-07-21T03:54:20.935Z,42.26
2018-07-21T03:56:50.067Z,42.15
2018-07-21T03:59:19.338Z,42.09
2018-07-21T04:01:48.439Z,41.89
2018-07-21T04:04:17.555Z,41.78
2018-07-21T04:06:46.654Z,41.59
2018-07-21T04:09:15.841Z,41.40
2018-07-21T04:11:44.975Z,41.36
2018-07-21T04:14:14.049Z,41.20
2018-07-21T04:16:43.217Z,41.35
2018-07-21T04:19:12.585Z,41.16
2018-07-21T04:21:41.853Z,41.23
2018-07-21T04:24:11.058Z,41.01
2018-07-21T04:26:40.198Z,41.23
2018-07-21T04:29:09.311Z,41.36
2018-07-21T04:31:38.372Z,41.18
2018-07-21T04:34:07.491Z,41.35
2018-07-21T04:36:36.617Z,41.26
2018-07-21T04:39:09.268Z,41.18
2018-07-21T04:41:38.342Z,40.68
2018-07-21T04:44:07.579Z,40.86
2018-07-21T04:46:36.750Z,40.80
2018-07-21T04:49:06.091Z,40.57
2018-07-21T04:51:35.209Z,40.57
2018-07-21T04:54:04.364Z,40.45
2018-07-21T04:56:33.452Z,40.11
2018-07-21T04:59:02.572Z,39.93
2018-07-21T05:01:31.804Z,39.96
2018-07-21T05:04:00.922Z,39.64
2018-07-21T05:06:30.007Z,39.48
2018-07-21T05:08:59.111Z,39.70
2018-07-21T05:11:28.202Z,39.23
2018-07-21T05:13:57.310Z,39.24
2018-07-21T05:16:26.492Z,39.13
2018-07-21T05:18:55.614Z,38.96
2018-07-21T05:21:24.706Z,38.72
2018-07-21T05:23:53.805Z,38.78
2018-07-21T05:26:22.844Z,39.06
2018-07-21T05:28:51.894Z,38.78
2018-07-21T05:31:21.309Z,38.20
2018-07-21T05:33:50.920Z,38.08
2018-07-21T05:36:20.099Z,38.15
2018-07-21T05:38:49.316Z,37.69
2018-07-21T05:41:18.426Z,37.62
2018-07-21T05:43:47.617Z,37.46
2018-07-21T05:46:16.714Z,37.51
2018-07-21T05:48:45.785Z,36.69
2018-07-21T05:51:14.873Z,36.62
2018-07-21T05:53:43.942Z,36.42
2018-07-21T05:56:13.013Z,34.92
2018-07-21T05:58:42.130Z,31.53
2018-07-21T06:01:11.204Z,29.88
2018-07-21T06:03:40.359Z,27.75
2018-07-21T06:06:09.490Z,26.86
2018-07-21T06:08:38.550Z,27.49
2018-07-21T06:11:07.694Z,26.18
2018-07-21T06:13:36.772Z,26.31
2018-07-21T06:16:05.928Z,25.25
2018-07-21T06:18:35.073Z,24.89
2018-07-21T06:21:04.228Z,25.67
2018-07-21T06:23:33.364Z,25.00
2018-07-21T06:26:02.280Z,25.87
2018-07-21T06:28:31.406Z,24.64
2018-07-21T06:31:00.514Z,24.83
2018-07-21T06:33:29.634Z,24.39
2018-07-21T06:35:58.722Z,24.15
2018-07-21T06:38:27.814Z,25.06
2018-07-21T06:40:56.965Z,24.17
2018-07-21T06:43:26.095Z,24.79
2018-07-21T06:45:55.154Z,25.49
2018-07-21T06:48:24.243Z,26.95
2018-07-21T06:50:53.363Z,29.22
2018-07-21T06:53:22.441Z,31.68
2018-07-21T06:55:51.550Z,32.21
2018-07-21T06:58:20.682Z,33.31
2018-07-21T07:00:49.815Z,32.82
2018-07-21T07:03:18.965Z,33.01
2018-07-21T07:05:48.082Z,32.81
2018-07-21T07:08:17.959Z,33.10
2018-07-21T07:10:47.087Z,32.24
2018-07-21T07:13:16.225Z,32.34
2018-07-21T07:15:45.312Z,32.30
2018-07-21T07:18:14.421Z,32.56
2018-07-21T07:20:43.525Z,32.78
2018-07-21T07:23:12.887Z,32.19
2018-07-21T07:25:42.022Z,32.98
2018-07-21T07:28:11.184Z,32.45
2018-07-21T07:30:40.399Z,32.23
2018-07-21T07:33:09.494Z,31.50
2018-07-21T07:35:38.602Z,31.73
2018-07-21T07:38:07.714Z,31.84
2018-07-21T07:40:36.871Z,31.59
2018-07-21T07:43:06.539Z,31.55
2018-07-21T07:45:35.678Z,31.63
2018-07-21T07:48:04.811Z,31.13
2018-07-21T07:50:33.897Z,31.17
2018-07-21T07:53:04.746Z,30.55
2018-07-21T07:55:34.416Z,30.76
2018-07-21T07:58:04.588Z,30.37
2018-07-21T08:00:33.772Z,30.17
2018-07-21T08:03:03.263Z,30.73
2018-07-21T08:05:32.383Z,30.65
2018-07-21T08:08:01.473Z,30.21
2018-07-21T08:10:30.572Z,29.35
2018-07-21T08:12:59.687Z,29.61
2018-07-21T08:15:28.733Z,29.58
2018-07-21T08:17:58.327Z,29.69
2018-07-21T08:20:27.453Z,29.62
2018-07-21T08:22:56.944Z,29.69
2018-07-21T08:25:26.262Z,29.26
2018-07-21T08:27:55.668Z,29.35
2018-07-21T08:30:24.772Z,28.92
2018-07-21T08:32:53.876Z,28.29
2018-07-21T08:35:22.945Z,28.15
2018-07-21T08:37:52.091Z,27.91
2018-07-21T08:40:21.203Z,27.72
2018-07-21T08:42:50.349Z,28.00
2018-07-21T08:45:19.495Z,27.25
2018-07-21T08:47:48.546Z,27.27
2018-07-21T08:50:17.727Z,27.26
2018-07-21T08:52:46.837Z,28.05
2018-07-21T08:55:15.996Z,27.88
2018-07-21T08:57:45.091Z,28.04
2018-07-21T09:00:14.207Z,27.03
2018-07-21T09:02:43.306Z,25.13
2018-07-21T09:05:12.488Z,22.92
2018-07-21T09:07:41.553Z,22.67
2018-07-21T09:10:10.646Z,22.00
2018-07-21T09:12:39.770Z,22.08
2018-07-21T09:15:08.874Z,21.62
2018-07-21T09:17:37.943Z,22.07
2018-07-21T09:20:07.111Z,22.49
2018-07-21T09:22:36.205Z,23.34
2018-07-21T09:25:05.817Z,24.41
2018-07-21T09:27:34.915Z,24.88
2018-07-21T09:30:04.127Z,25.07
2018-07-21T09:32:33.247Z,25.24
2018-07-21T09:35:02.329Z,26.04
2018-07-21T09:37:31.467Z,25.77
2018-07-21T09:40:00.659Z,25.62
2018-07-21T09:42:29.712Z,25.77
2018-07-21T09:44:58.787Z,25.40
2018-07-21T09:47:27.987Z,25.71
2018-07-21T09:49:57.126Z,25.38
2018-07-21T09:52:26.179Z,25.45
2018-07-21T09:54:55.266Z,25.42
2018-07-21T09:57:24.542Z,24.89
2018-07-21T09:59:53.605Z,24.40
2018-07-21T10:02:22.691Z,24.77
2018-07-21T10:04:51.822Z,24.12
2018-07-21T10:07:20.887Z,24.05
2018-07-21T10:09:50.017Z,24.25
2018-07-21T10:12:19.163Z,24.56
2018-07-21T10:14:48.257Z,25.18
2018-07-21T10:17:17.355Z,24.94
2018-07-21T10:19:46.438Z,23.90
2018-07-21T10:22:15.633Z,23.39
2018-07-21T10:24:49.962Z,24.60
2018-07-21T10:27:19.103Z,23.87
2018-07-21T10:29:48.165Z,23.34
2018-07-21T10:32:17.236Z,23.98
2018-07-21T10:34:46.354Z,24.36
2018-07-21T10:37:15.516Z,23.83
2018-07-21T10:39:44.573Z,23.83
2018-07-21T10:42:13.724Z,24.41
2018-07-21T10:44:42.642Z,24.11
2018-07-21T10:47:11.712Z,24.65
2018-07-21T10:49:41.581Z,24.37
2018-07-21T10:52:10.638Z,24.83
2018-07-21T10:54:39.746Z,25.29
2018-07-21T10:57:08.812Z,24.63
2018-07-21T10:59:38.035Z,25.05
2018-07-21T11:02:07.137Z,24.63
2018-07-21T11:04:36.255Z,24.72
2018-07-21T11:07:05.451Z,24.24
2018-07-21T11:09:34.512Z,24.02
2018-07-21T11:12:03.667Z,24.74
2018-07-21T11:14:32.816Z,24.25
2018-07-21T11:17:01.876Z,24.15
2018-07-21T11:19:30.930Z,24.48
2018-07-21T11:22:00.045Z,24.25
2018-07-21T11:24:29.093Z,24.60
2018-07-21T11:26:58.195Z,25.03
2018-07-21T11:29:27.379Z,24.81
2018-07-21T11:31:56.476Z,25.00
2018-07-21T11:34:25.583Z,23.82
2018-07-21T11:36:54.692Z,24.29
2018-07-21T11:39:23.818Z,24.26
2018-07-21T11:41:52.894Z,23.90
2018-07-21T11:44:22.134Z,23.65
2018-07-21T11:46:51.194Z,23.96
2018-07-21T11:49:20.246Z,24.26
2018-07-21T11:51:49.322Z,24.02
2018-07-21T11:54:18.224Z,23.65
2018-07-21T11:56:47.315Z,24.28
2018-07-21T11:59:16.496Z,24.14
2018-07-21T12:01:45.661Z,24.71
2018-07-21T12:04:14.731Z,24.36
2018-07-21T12:06:43.890Z,24.14
2018-07-21T12:09:13.015Z,23.70
2018-07-21T12:11:42.111Z,23.45
2018-07-21T12:14:11.239Z,23.85
2018-07-21T12:16:40.551Z,23.66
2018-07-21T12:19:09.730Z,24.17
2018-07-21T12:21:38.826Z,24.10
2018-07-21T12:24:08.027Z,24.03
2018-07-21T12:26:37.146Z,24.22
2018-07-21T12:29:06.593Z,24.34
2018-07-21T12:31:35.839Z,24.76
2018-07-21T12:34:05.096Z,24.91
2018-07-21T12:36:34.207Z,24.63
2018-07-21T12:39:03.334Z,24.05
2018-07-21T12:41:32.440Z,24.16
2018-07-21T12:44:01.537Z,24.78
2018-07-21T12:46:30.651Z,24.46
2018-07-21T12:48:59.795Z,24.17
2018-07-21T12:51:28.953Z,24.15
2018-07-21T12:53:58.046Z,23.63
2018-07-21T12:56:27.163Z,23.65
2018-07-21T12:58:56.285Z,23.63
2018-07-21T13:01:25.374Z,23.56
2018-07-21T13:03:54.562Z,22.93
2018-07-21T13:06:23.711Z,24.01
2018-07-21T13:08:52.617Z,23.73
2018-07-21T13:11:21.695Z,23.44
2018-07-21T13:13:50.837Z,22.81
2018-07-21T13:16:19.958Z,22.95
2018-07-21T13:18:49.062Z,23.07
2018-07-21T13:21:18.235Z,22.63
2018-07-21T13:23:47.322Z,22.48
2018-07-21T13:26:16.422Z,22.31
2018-07-21T13:28:45.555Z,22.42
2018-07-21T13:31:14.670Z,22.32
2018-07-21T13:33:43.778Z,22.79
2018-07-21T13:36:12.899Z,22.44
2018-07-21T13:38:42.027Z,22.85
2018-07-21T13:41:11.100Z,22.06
2018-07-21T13:43:40.227Z,21.97
2018-07-21T13:46:09.373Z,22.54
2018-07-21T13:48:38.489Z,22.27
2018-07-21T13:51:08.056Z,22.89
2018-07-21T13:53:37.168Z,23.40
2018-07-21T13:56:06.615Z,22.82
2018-07-21T13:58:35.798Z,23.20
2018-07-21T14:01:04.855Z,23.23
2018-07-21T14:03:33.999Z,23.55
2018-07-21T14:06:03.142Z,23.72
2018-07-21T14:08:32.245Z,23.85
2018-07-21T14:11:01.376Z,23.80
2018-07-21T14:13:30.474Z,24.23
2018-07-21T14:15:59.723Z,23.87
2018-07-21T14:18:28.785Z,23.97
2018-07-21T14:20:57.942Z,23.92
2018-07-21T14:23:27.033Z,23.72
2018-07-21T14:25:56.123Z,23.32
2018-07-21T14:28:25.311Z,23.87
2018-07-21T14:30:54.467Z,23.94
2018-07-21T14:33:23.560Z,24.40
2018-07-21T14:35:52.743Z,23.76
2018-07-21T14:38:21.882Z,23.79
2018-07-21T14:40:51.035Z,23.83
2018-07-21T14:43:20.150Z,24.58
2018-07-21T14:45:49.238Z,24.82
2018-07-21T14:48:18.300Z,24.41
2018-07-21T14:50:47.419Z,25.33
2018-07-21T14:53:16.589Z,24.89
2018-07-21T14:55:45.729Z,24.52
2018-07-21T14:58:14.856Z,24.81
2018-07-21T15:00:44.022Z,24.92
2018-07-21T15:03:13.201Z,24.46
2018-07-21T15:05:42.282Z,25.05
2018-07-21T15:08:11.438Z,25.00
2018-07-21T15:10:40.573Z,25.47
2018-07-21T15:13:09.699Z,25.33
2018-07-21T15:15:38.884Z,25.07
2018-07-21T15:18:07.958Z,25.29
2018-07-21T15:20:37.182Z,25.07
2018-07-21T15:23:06.506Z,25.08
2018-07-21T15:25:35.644Z,25.25
2018-07-21T15:28:04.757Z,25.15
2018-07-21T15:30:33.973Z,25.99
2018-07-21T15:33:03.062Z,25.71
2018-07-21T15:35:32.250Z,25.68
2018-07-21T15:38:01.392Z,25.67
2018-07-21T15:40:30.559Z,26.09
2018-07-21T15:42:59.695Z,25.82
2018-07-21T15:45:28.749Z,26.06
2018-07-21T15:47:57.867Z,25.77
2018-07-21T15:50:26.966Z,26.09
2018-07-21T15:52:56.165Z,26.67
2018-07-21T15:55:25.352Z,26.06
2018-07-21T15:57:54.613Z,25.51
2018-07-21T16:00:23.708Z,26.66
2018-07-21T16:02:52.829Z,26.46
2018-07-21T16:05:21.991Z,26.35
2018-07-21T16:07:51.118Z,26.49
2018-07-21T16:10:20.277Z,26.36
2018-07-21T16:12:49.417Z,26.86
2018-07-21T16:15:18.551Z,26.37
2018-07-21T16:17:47.697Z,26.86
2018-07-21T16:20:16.997Z,28.62
2018-07-21T16:22:46.147Z,29.81
2018-07-21T16:25:15.424Z,30.34
2018-07-21T16:27:44.546Z,31.53
2018-07-21T16:30:13.641Z,31.41
2018-07-21T16:32:42.786Z,31.92
2018-07-21T16:35:11.982Z,32.69
2018-07-21T16:37:41.133Z,32.83
2018-07-21T16:40:10.296Z,33.08
2018-07-21T16:42:39.405Z,32.90
2018-07-21T16:45:08.543Z,33.38
2018-07-21T16:47:37.756Z,33.52
2018-07-21T16:50:06.894Z,33.62
2018-07-21T16:52:36.007Z,33.44
2018-07-21T16:55:05.125Z,33.68
2018-07-21T16:57:34.281Z,33.77
2018-07-21T17:00:03.389Z,34.24
2018-07-21T17:02:32.457Z,34.25
2018-07-21T17:05:01.616Z,34.45
2018-07-21T17:07:30.768Z,34.10
2018-07-21T17:09:59.640Z,34.39
2018-07-21T17:12:28.751Z,34.67
2018-07-21T17:14:57.923Z,34.47
2018-07-21T17:17:27.123Z,34.47
2018-07-21T17:19:56.226Z,34.65
2018-07-21T17:22:25.376Z,34.87
2018-07-21T17:24:54.531Z,34.74
2018-07-21T17:27:23.704Z,35.17
2018-07-21T17:29:52.918Z,34.67
2018-07-21T17:32:22.036Z,34.76
2018-07-21T17:34:51.217Z,35.55
2018-07-21T17:37:20.300Z,34.95
2018-07-21T17:39:49.395Z,35.03
2018-07-21T17:42:18.542Z,35.11
2018-07-21T17:44:47.693Z,35.30
2018-07-21T17:47:16.781Z,35.27
2018-07-21T17:49:45.904Z,35.18
2018-07-21T17:52:15.072Z,35.70
2018-07-21T17:54:44.158Z,35.28
2018-07-21T17:57:13.258Z,35.87
2018-07-21T17:59:42.367Z,35.96
2018-07-21T18:02:11.436Z,35.72
2018-07-21T18:04:40.544Z,36.13
2018-07-21T18:07:09.823Z,35.71
2018-07-21T18:09:38.918Z,35.76
2018-07-21T18:12:08.008Z,35.82
2018-07-21T18:14:37.174Z,36.11
2018-07-21T18:17:06.335Z,36.34
2018-07-21T18:19:35.389Z,36.13
2018-07-21T18:22:04.633Z,36.54
2018-07-21T18:24:33.732Z,36.14
2018-07-21T18:27:02.932Z,36.65
2018-07-21T18:29:31.994Z,36.73
2018-07-21T18:32:01.141Z,36.93
2018-07-21T18:34:30.253Z,36.79
2018-07-21T18:36:59.408Z,36.80
2018-07-21T18:39:28.575Z,36.75
2018-07-21T18:41:57.702Z,37.21
2018-07-21T18:44:26.827Z,37.12
2018-07-21T18:46:55.782Z,37.06
2018-07-21T18:49:24.924Z,37.02
2018-07-21T18:51:54.019Z,37.29
2018-07-21T18:54:22.900Z,36.93
2018-07-21T18:56:52.010Z,37.25
2018-07-21T18:59:21.103Z,36.99
2018-07-21T19:01:50.223Z,37.27
2018-07-21T19:04:19.335Z,37.49
2018-07-21T19:06:48.390Z,38.28
2018-07-21T19:09:17.467Z,38.06
2018-07-21T19:11:50.684Z,38.49
2018-07-21T19:14:19.823Z,38.63
2018-07-21T19:16:48.909Z,38.23
2018-07-21T19:19:18.055Z,38.54
2018-07-21T19:21:47.199Z,38.37
2018-07-21T19:24:16.411Z,38.35
2018-07-21T19:26:50.859Z,38.34
2018-07-21T19:29:20.001Z,38.71
2018-07-21T19:31:54.601Z,38.23
2018-07-21T19:34:23.690Z,38.25
2018-07-21T19:36:52.810Z,38.62
2018-07-21T19:39:21.898Z,38.45
2018-07-21T19:41:56.237Z,39.04
2018-07-21T19:44:25.295Z,38.43
2018-07-21T19:46:54.343Z,38.89
2018-07-21T19:49:23.445Z,38.90
2018-07-21T19:51:52.562Z,38.95
2018-07-21T19:54:21.708Z,39.61
2018-07-21T19:56:50.841Z,39.52
2018-07-21T19:59:20.046Z,40.09
2018-07-21T20:01:49.132Z,40.26
2018-07-21T20:04:18.270Z,41.48
2018-07-21T20:06:47.237Z,40.74
2018-07-21T20:09:16.327Z,41.18
2018-07-21T20:11:45.442Z,40.16
2018-07-21T20:14:14.547Z,40.42
2018-07-21T20:16:43.606Z,39.98
2018-07-21T20:19:12.746Z,40.39
2018-07-21T20:21:41.851Z,41.08
2018-07-21T20:24:11.081Z,41.56
2018-07-21T20:26:40.158Z,41.69
2018-07-21T20:29:09.269Z,41.78
2018-07-21T20:31:38.345Z,41.73
2018-07-21T20:34:07.492Z,40.79
2018-07-21T20:36:36.584Z,41.63
2018-07-21T20:39:08.634Z,40.98
2018-07-21T20:41:37.755Z,40.98
2018-07-21T20:44:06.975Z,41.34
2018-07-21T20:46:36.522Z,41.00
2018-07-21T20:49:05.665Z,41.73
2018-07-21T20:51:34.875Z,41.77
2018-07-21T20:54:03.980Z,41.99
2018-07-21T20:56:33.038Z,42.41
2018-07-21T20:59:02.142Z,42.66
2018-07-21T21:01:31.267Z,42.03
2018-07-21T21:04:00.365Z,41.46
2018-07-21T21:06:29.495Z,41.18
2018-07-21T21:08:58.646Z,41.65
2018-07-21T21:11:27.716Z,41.98
2018-07-21T21:13:56.794Z,41.59
2018-07-21T21:16:25.940Z,41.98
2018-07-21T21:18:55.138Z,41.62
2018-07-21T21:21:24.242Z,41.99
2018-07-21T21:23:53.343Z,42.09
2018-07-21T21:26:22.479Z,41.73
2018-07-21T21:28:51.652Z,41.87
2018-07-21T21:31:20.757Z,42.32
2018-07-21T21:33:49.867Z,42.62
2018-07-21T21:36:18.938Z,42.18
2018-07-21T21:38:48.032Z,42.44
2018-07-21T21:41:17.118Z,42.37
2018-07-21T21:43:46.200Z,42.70
2018-07-21T21:46:15.310Z,42.51
2018-07-21T21:48:44.484Z,42.22
2018-07-21T21:51:13.626Z,42.67
2018-07-21T21:53:42.681Z,41.81
2018-07-21T21:56:11.819Z,41.73
2018-07-21T21:58:40.986Z,41.79
2018-07-21T22:01:11.298Z,41.46
2018-07-21T22:03:40.435Z,40.93
2018-07-21T22:06:09.562Z,40.98
2018-07-21T22:08:38.652Z,40.61
2018-07-21T22:11:07.789Z,40.79
2018-07-21T22:13:36.946Z,41.61
2018-07-21T22:16:06.031Z,41.48
2018-07-21T22:18:35.085Z,41.84
2018-07-21T22:21:04.219Z,42.51
2018-07-21T22:23:33.344Z,42.91
2018-07-21T22:26:02.274Z,42.24
2018-07-21T22:28:31.428Z,42.53
2018-07-21T22:31:00.509Z,42.49
2018-07-21T22:33:29.606Z,42.57
2018-07-21T22:35:58.784Z,42.21
2018-07-21T22:38:27.911Z,42.03
2018-07-21T22:40:57.042Z,41.71
2018-07-21T22:43:26.193Z,42.05
2018-07-21T22:45:55.317Z,42.12
2018-07-21T22:48:24.459Z,41.94
2018-07-21T22:50:53.556Z,42.31
2018-07-21T22:53:22.622Z,42.62
2018-07-21T22:55:51.750Z,42.86
2018-07-21T22:58:21.015Z,43.33
2018-07-21T23:00:50.278Z,43.29
2018-07-21T23:03:19.376Z,43.09
2018-07-21T23:05:48.474Z,43.36
2018-07-21T23:08:17.602Z,43.49
2018-07-21T23:10:46.677Z,43.72
2018-07-21T23:13:15.845Z,44.53
2018-07-21T23:15:44.993Z,44.16
2018-07-21T23:18:14.065Z,45.50
2018-07-21T23:20:43.190Z,45.64
2018-07-21T23:23:12.290Z,46.96
2018-07-21T23:25:41.413Z,46.87
2018-07-21T23:28:10.549Z,47.20
2018-07-21T23:30:39.718Z,47.46
2018-07-21T23:33:08.813Z,47.28
2018-07-21T23:35:37.973Z,48.27
2018-07-21T23:38:07.117Z,49.36
2018-07-21T23:40:36.278Z,49.56
2018-07-21T23:43:05.448Z,50.29
2018-07-21T23:45:34.529Z,50.72
2018-07-21T23:48:03.654Z,51.69
2018-07-21T23:50:32.833Z,52.51
2018-07-21T23:53:01.901Z,52.23
2018-07-21T23:55:31.026Z,52.28
2018-07-21T23:58:00.090Z,53.29
